Scotland, Georgia
Current Conditions -  °F | °C
As of 4:55 AM on Friday 28 Nov 2014 (Local Time) from KAZE Reporting Station
Clear Clear  
Wind Chill: 29°   Ceiling: Unl
Heat Index: 35°   Visibility: 10mi
Dew Point: 32°   Wind: 7mph
Humidity: 89%   Direction: 350°N
Pressure: 30.35"   Gusts: NA
Location:  32.05°N, 82.82°W
Report Text: KAZE 280955Z AUTO 35006KT 10SM CLR 02/00 A3035 RMK AO2 T00160000
Loading
Personal Weather Stations






























Interactive Weather Map New forecast layout! Learn more

10-Day Weather Forecast

Advertisements
Track Severe Weather on mobile